sensor_id;sensor_type;location;lat;lon;timestamp;temperature;humidity
5578;DHT22;2811;51.900;10.734;2023-06-10T00:02:22;16.40;99.90
5578;DHT22;2811;51.900;10.734;2023-06-10T00:04:50;16.60;99.90
5578;DHT22;2811;51.900;10.734;2023-06-10T00:07:18;16.80;99.90
5578;DHT22;2811;51.900;10.734;2023-06-10T00:09:44;16.80;99.90
5578;DHT22;2811;51.900;10.734;2023-06-10T00:12:11;17.00;99.90
5578;DHT22;2811;51.900;10.734;2023-06-10T00:14:39;17.00;99.90
5578;DHT22;2811;51.900;10.734;2023-06-10T00:17:06;17.10;99.90
5578;DHT22;2811;51.900;10.734;2023-06-10T00:19:35;16.90;99.90
5578;DHT22;2811;51.900;10.734;2023-06-10T00:22:03;16.70;99.90
5578;DHT22;2811;51.900;10.734;2023-06-10T00:24:30;16.60;99.90
5578;DHT22;2811;51.900;10.734;2023-06-10T00:26:57;16.60;99.90
5578;DHT22;2811;51.900;10.734;2023-06-10T00:29:23;16.50;99.90
5578;DHT22;2811;51.900;10.734;2023-06-10T00:31:50;16.20;99.90
5578;DHT22;2811;51.900;10.734;2023-06-10T00:34:19;15.80;99.90
5578;DHT22;2811;51.900;10.734;2023-06-10T00:36:46;15.80;99.90
5578;DHT22;2811;51.900;10.734;2023-06-10T00:39:14;15.70;99.90
5578;DHT22;2811;51.900;10.734;2023-06-10T00:41:42;15.30;99.90
5578;DHT22;2811;51.900;10.734;2023-06-10T00:44:08;15.00;99.90
5578;DHT22;2811;51.900;10.734;2023-06-10T00:46:35;15.00;99.90
5578;DHT22;2811;51.900;10.734;2023-06-10T00:49:02;15.20;99.90
5578;DHT22;2811;51.900;10.734;2023-06-10T00:51:29;15.30;99.90
5578;DHT22;2811;51.900;10.734;2023-06-10T00:53:56;15.50;99.90
5578;DHT22;2811;51.900;10.734;2023-06-10T00:56:24;15.50;99.90
5578;DHT22;2811;51.900;10.734;2023-06-10T00:58:52;15.70;99.90
5578;DHT22;2811;51.900;10.734;2023-06-10T01:01:19;15.70;99.90
5578;DHT22;2811;51.900;10.734;2023-06-10T01:03:45;15.50;99.90
5578;DHT22;2811;51.900;10.734;2023-06-10T01:06:19;15.50;99.90
5578;DHT22;2811;51.900;10.734;2023-06-10T01:08:53;15.50;99.90
5578;DHT22;2811;51.900;10.734;2023-06-10T01:11:28;15.30;99.90
5578;DHT22;2811;51.900;10.734;2023-06-10T01:13:55;15.40;99.90
5578;DHT22;2811;51.900;10.734;2023-06-10T01:16:23;15.50;99.90
5578;DHT22;2811;51.900;10.734;2023-06-10T01:18:50;15.30;99.90
5578;DHT22;2811;51.900;10.734;2023-06-10T01:21:21;15.20;99.90
5578;DHT22;2811;51.900;10.734;2023-06-10T01:23:51;14.90;99.90
5578;DHT22;2811;51.900;10.734;2023-06-10T01:26:20;14.90;99.90
5578;DHT22;2811;51.900;10.734;2023-06-10T01:28:52;14.90;99.90
5578;DHT22;2811;51.900;10.734;2023-06-10T01:31:30;14.90;99.90
5578;DHT22;2811;51.900;10.734;2023-06-10T01:34:03;15.00;99.90
5578;DHT22;2811;51.900;10.734;2023-06-10T01:36:35;14.90;99.90
5578;DHT22;2811;51.900;10.734;2023-06-10T01:39:04;15.00;99.90
5578;DHT22;2811;51.900;10.734;2023-06-10T01:41:31;15.00;99.90
5578;DHT22;2811;51.900;10.734;2023-06-10T01:43:58;15.00;99.90
5578;DHT22;2811;51.900;10.734;2023-06-10T01:46:24;15.00;99.90
5578;DHT22;2811;51.900;10.734;2023-06-10T01:48:51;14.80;99.90
5578;DHT22;2811;51.900;10.734;2023-06-10T01:51:18;14.80;99.90
5578;DHT22;2811;51.900;10.734;2023-06-10T01:53:46;14.70;99.90
5578;DHT22;2811;51.900;10.734;2023-06-10T01:56:12;14.70;99.90
5578;DHT22;2811;51.900;10.734;2023-06-10T01:58:42;14.30;99.90
5578;DHT22;2811;51.900;10.734;2023-06-10T02:01:09;14.00;99.90
5578;DHT22;2811;51.900;10.734;2023-06-10T02:03:36;14.00;99.90
5578;DHT22;2811;51.900;10.734;2023-06-10T02:06:03;14.10;99.90
5578;DHT22;2811;51.900;10.734;2023-06-10T02:08:29;14.00;99.90
5578;DHT22;2811;51.900;10.734;2023-06-10T02:10:57;14.10;99.90
5578;DHT22;2811;51.900;10.734;2023-06-10T02:13:24;14.10;99.90
5578;DHT22;2811;51.900;10.734;2023-06-10T02:15:51;14.20;99.90
5578;DHT22;2811;51.900;10.734;2023-06-10T02:18:19;14.00;99.90
5578;DHT22;2811;51.900;10.734;2023-06-10T02:20:46;14.10;99.90
5578;DHT22;2811;51.900;10.734;2023-06-10T02:23:12;13.70;99.90
5578;DHT22;2811;51.900;10.734;2023-06-10T02:25:39;13.80;99.90
5578;DHT22;2811;51.900;10.734;2023-06-10T02:28:07;13.80;99.90
5578;DHT22;2811;51.900;10.734;2023-06-10T02:30:34;13.50;99.90
5578;DHT22;2811;51.900;10.734;2023-06-10T02:33:01;13.20;99.90
5578;DHT22;2811;51.900;10.734;2023-06-10T02:35:27;13.30;99.90
5578;DHT22;2811;51.900;10.734;2023-06-10T02:37:54;13.50;99.90
5578;DHT22;2811;51.900;10.734;2023-06-10T02:40:21;13.60;99.90
5578;DHT22;2811;51.900;10.734;2023-06-10T02:42:47;13.50;99.90
5578;DHT22;2811;51.900;10.734;2023-06-10T02:45:15;13.50;99.90
5578;DHT22;2811;51.900;10.734;2023-06-10T02:47:42;13.70;99.90
5578;DHT22;2811;51.900;10.734;2023-06-10T02:50:09;13.80;99.90
5578;DHT22;2811;51.900;10.734;2023-06-10T02:52:35;13.80;99.90
5578;DHT22;2811;51.900;10.734;2023-06-10T02:55:02;13.60;99.90
5578;DHT22;2811;51.900;10.734;2023-06-10T02:57:29;13.40;99.90
5578;DHT22;2811;51.900;10.734;2023-06-10T02:59:55;13.50;99.90
5578;DHT22;2811;51.900;10.734;2023-06-10T03:02:25;13.60;99.90
5578;DHT22;2811;51.900;10.734;2023-06-10T03:04:54;13.70;99.90
5578;DHT22;2811;51.900;10.734;2023-06-10T03:07:20;13.90;99.90
5578;DHT22;2811;51.900;10.734;2023-06-10T03:09:48;14.00;99.90
5578;DHT22;2811;51.900;10.734;2023-06-10T03:12:15;13.90;99.90
5578;DHT22;2811;51.900;10.734;2023-06-10T03:14:42;14.00;99.90
5578;DHT22;2811;51.900;10.734;2023-06-10T03:17:08;14.10;99.90
5578;DHT22;2811;51.900;10.734;2023-06-10T03:19:36;14.00;99.90
5578;DHT22;2811;51.900;10.734;2023-06-10T03:22:09;13.80;99.90
5578;DHT22;2811;51.900;10.734;2023-06-10T03:24:35;13.80;99.90
5578;DHT22;2811;51.900;10.734;2023-06-10T03:27:06;13.90;99.90
5578;DHT22;2811;51.900;10.734;2023-06-10T03:29:33;14.10;99.90
5578;DHT22;2811;51.900;10.734;2023-06-10T03:32:00;14.10;99.90
5578;DHT22;2811;51.900;10.734;2023-06-10T03:34:26;14.20;99.90
5578;DHT22;2811;51.900;10.734;2023-06-10T03:36:54;14.20;99.90
5578;DHT22;2811;51.900;10.734;2023-06-10T03:39:21;14.40;99.90
5578;DHT22;2811;51.900;10.734;2023-06-10T03:41:48;14.40;99.90
5578;DHT22;2811;51.900;10.734;2023-06-10T03:44:15;14.50;99.90
5578;DHT22;2811;51.900;10.734;2023-06-10T03:46:41;14.40;99.90
5578;DHT22;2811;51.900;10.734;2023-06-10T03:49:08;14.10;99.90
5578;DHT22;2811;51.900;10.734;2023-06-10T03:51:36;14.20;99.90
5578;DHT22;2811;51.900;10.734;2023-06-10T03:54:04;14.20;99.90
5578;DHT22;2811;51.900;10.734;2023-06-10T03:56:31;14.30;99.90
5578;DHT22;2811;51.900;10.734;2023-06-10T03:58:57;14.30;99.90
5578;DHT22;2811;51.900;10.734;2023-06-10T04:01:24;14.30;99.90
5578;DHT22;2811;51.900;10.734;2023-06-10T04:03:52;14.00;99.90
5578;DHT22;2811;51.900;10.734;2023-06-10T04:06:19;13.90;99.90
5578;DHT22;2811;51.900;10.734;2023-06-10T04:08:48;13.80;99.90
5578;DHT22;2811;51.900;10.734;2023-06-10T04:11:16;13.80;99.90
5578;DHT22;2811;51.900;10.734;2023-06-10T04:13:42;13.50;99.90
5578;DHT22;2811;51.900;10.734;2023-06-10T04:16:09;13.50;99.90
5578;DHT22;2811;51.900;10.734;2023-06-10T04:18:36;13.50;99.90
5578;DHT22;2811;51.900;10.734;2023-06-10T04:21:02;13.80;99.90
5578;DHT22;2811;51.900;10.734;2023-06-10T04:23:29;14.20;99.90
5578;DHT22;2811;51.900;10.734;2023-06-10T04:25:56;14.50;99.90
5578;DHT22;2811;51.900;10.734;2023-06-10T04:28:23;14.60;99.90
5578;DHT22;2811;51.900;10.734;2023-06-10T04:30:50;14.80;99.90
5578;DHT22;2811;51.900;10.734;2023-06-10T04:33:17;15.10;99.90
5578;DHT22;2811;51.900;10.734;2023-06-10T04:35:43;15.30;99.90
5578;DHT22;2811;51.900;10.734;2023-06-10T04:38:12;15.30;99.90
5578;DHT22;2811;51.900;10.734;2023-06-10T04:40:39;15.60;99.90
5578;DHT22;2811;51.900;10.734;2023-06-10T04:43:06;16.30;99.90
5578;DHT22;2811;51.900;10.734;2023-06-10T04:45:34;16.70;99.90
5578;DHT22;2811;51.900;10.734;2023-06-10T04:48:01;16.70;99.90
5578;DHT22;2811;51.900;10.734;2023-06-10T04:50:28;16.90;99.90
5578;DHT22;2811;51.900;10.734;2023-06-10T04:52:55;17.20;99.90
5578;DHT22;2811;51.900;10.734;2023-06-10T04:55:22;17.60;99.90
5578;DHT22;2811;51.900;10.734;2023-06-10T04:57:49;17.90;99.90
5578;DHT22;2811;51.900;10.734;2023-06-10T05:00:18;17.80;99.90
5578;DHT22;2811;51.900;10.734;2023-06-10T05:02:46;18.00;99.90
5578;DHT22;2811;51.900;10.734;2023-06-10T05:05:15;18.40;99.90
5578;DHT22;2811;51.900;10.734;2023-06-10T05:07:41;18.50;99.90
5578;DHT22;2811;51.900;10.734;2023-06-10T05:10:09;18.70;99.90
5578;DHT22;2811;51.900;10.734;2023-06-10T05:12:37;18.70;99.90
5578;DHT22;2811;51.900;10.734;2023-06-10T05:15:05;18.60;99.90
5578;DHT22;2811;51.900;10.734;2023-06-10T05:17:32;18.80;99.90
5578;DHT22;2811;51.900;10.734;2023-06-10T05:20:01;18.70;99.90
5578;DHT22;2811;51.900;10.734;2023-06-10T05:22:28;18.60;99.90
5578;DHT22;2811;51.900;10.734;2023-06-10T05:24:55;18.60;99.90
5578;DHT22;2811;51.900;10.734;2023-06-10T05:27:22;18.70;99.90
5578;DHT22;2811;51.900;10.734;2023-06-10T05:29:49;18.50;99.90
5578;DHT22;2811;51.900;10.734;2023-06-10T05:32:17;18.60;99.90
5578;DHT22;2811;51.900;10.734;2023-06-10T05:34:43;18.60;99.90
5578;DHT22;2811;51.900;10.734;2023-06-10T05:37:12;18.90;99.90
5578;DHT22;2811;51.900;10.734;2023-06-10T05:39:39;19.20;99.90
5578;DHT22;2811;51.900;10.734;2023-06-10T05:42:07;19.10;99.90
5578;DHT22;2811;51.900;10.734;2023-06-10T05:44:34;19.00;99.90
5578;DHT22;2811;51.900;10.734;2023-06-10T05:47:01;19.00;99.90
5578;DHT22;2811;51.900;10.734;2023-06-10T05:49:28;18.60;99.90
5578;DHT22;2811;51.900;10.734;2023-06-10T05:51:54;18.80;99.90
5578;DHT22;2811;51.900;10.734;2023-06-10T05:54:22;18.90;99.90
5578;DHT22;2811;51.900;10.734;2023-06-10T05:56:49;18.80;99.90
5578;DHT22;2811;51.900;10.734;2023-06-10T05:59:16;18.90;99.90
5578;DHT22;2811;51.900;10.734;2023-06-10T06:01:42;19.10;99.90
5578;DHT22;2811;51.900;10.734;2023-06-10T06:04:09;19.20;99.90
5578;DHT22;2811;51.900;10.734;2023-06-10T06:06:38;19.40;99.90
5578;DHT22;2811;51.900;10.734;2023-06-10T06:09:05;19.60;99.90
5578;DHT22;2811;51.900;10.734;2023-06-10T06:11:33;19.60;99.90
5578;DHT22;2811;51.900;10.734;2023-06-10T06:14:00;19.40;99.90
5578;DHT22;2811;51.900;10.734;2023-06-10T06:16:27;19.70;99.90
5578;DHT22;2811;51.900;10.734;2023-06-10T06:18:53;19.90;99.90
5578;DHT22;2811;51.900;10.734;2023-06-10T06:21:20;19.90;99.90
5578;DHT22;2811;51.900;10.734;2023-06-10T06:23:47;20.10;99.90
5578;DHT22;2811;51.900;10.734;2023-06-10T06:26:13;20.20;99.90
5578;DHT22;2811;51.900;10.734;2023-06-10T06:28:41;20.30;99.90
5578;DHT22;2811;51.900;10.734;2023-06-10T06:31:08;20.30;99.90
5578;DHT22;2811;51.900;10.734;2023-06-10T06:33:35;20.00;99.90
5578;DHT22;2811;51.900;10.734;2023-06-10T06:36:01;19.90;99.90
5578;DHT22;2811;51.900;10.734;2023-06-10T06:38:28;20.20;99.90
5578;DHT22;2811;51.900;10.734;2023-06-10T06:40:55;20.10;99.90
5578;DHT22;2811;51.900;10.734;2023-06-10T06:43:21;20.20;99.90
5578;DHT22;2811;51.900;10.734;2023-06-10T06:45:49;20.20;99.90
5578;DHT22;2811;51.900;10.734;2023-06-10T06:48:16;20.10;99.90
5578;DHT22;2811;51.900;10.734;2023-06-10T06:50:42;20.40;99.90
5578;DHT22;2811;51.900;10.734;2023-06-10T06:53:09;20.40;99.90
5578;DHT22;2811;51.900;10.734;2023-06-10T06:55:36;20.40;99.90
5578;DHT22;2811;51.900;10.734;2023-06-10T06:58:02;20.00;99.90
5578;DHT22;2811;51.900;10.734;2023-06-10T07:00:29;20.30;99.90
5578;DHT22;2811;51.900;10.734;2023-06-10T07:02:57;20.20;99.90
5578;DHT22;2811;51.900;10.734;2023-06-10T07:05:24;20.70;99.90
5578;DHT22;2811;51.900;10.734;2023-06-10T07:07:52;21.10;99.90
5578;DHT22;2811;51.900;10.734;2023-06-10T07:10:20;21.70;99.90
5578;DHT22;2811;51.900;10.734;2023-06-10T07:12:47;21.60;99.90
5578;DHT22;2811;51.900;10.734;2023-06-10T07:15:14;21.30;99.90
5578;DHT22;2811;51.900;10.734;2023-06-10T07:17:41;21.50;99.90
5578;DHT22;2811;51.900;10.734;2023-06-10T07:20:10;21.50;99.90
5578;DHT22;2811;51.900;10.734;2023-06-10T07:22:36;21.00;99.90
5578;DHT22;2811;51.900;10.734;2023-06-10T07:25:04;20.80;99.90
5578;DHT22;2811;51.900;10.734;2023-06-10T07:27:31;20.80;99.90
5578;DHT22;2811;51.900;10.734;2023-06-10T07:29:58;20.50;99.90
5578;DHT22;2811;51.900;10.734;2023-06-10T07:32:26;20.60;99.90
5578;DHT22;2811;51.900;10.734;2023-06-10T07:34:53;21.20;99.90
5578;DHT22;2811;51.900;10.734;2023-06-10T07:37:21;21.60;99.90
5578;DHT22;2811;51.900;10.734;2023-06-10T07:39:47;21.80;99.90
5578;DHT22;2811;51.900;10.734;2023-06-10T07:42:14;22.00;99.90
5578;DHT22;2811;51.900;10.734;2023-06-10T07:44:41;22.20;99.90
5578;DHT22;2811;51.900;10.734;2023-06-10T07:47:07;22.30;99.90
5578;DHT22;2811;51.900;10.734;2023-06-10T07:49:34;22.10;99.90
5578;DHT22;2811;51.900;10.734;2023-06-10T07:52:01;22.10;99.90
5578;DHT22;2811;51.900;10.734;2023-06-10T07:54:28;21.70;99.90
5578;DHT22;2811;51.900;10.734;2023-06-10T07:56:55;21.80;99.90
5578;DHT22;2811;51.900;10.734;2023-06-10T07:59:22;21.80;99.90
5578;DHT22;2811;51.900;10.734;2023-06-10T08:01:48;21.90;99.90
5578;DHT22;2811;51.900;10.734;2023-06-10T08:04:15;22.50;99.90
5578;DHT22;2811;51.900;10.734;2023-06-10T08:06:42;23.10;99.90
5578;DHT22;2811;51.900;10.734;2023-06-10T08:09:08;23.10;99.90
5578;DHT22;2811;51.900;10.734;2023-06-10T08:11:36;23.10;99.90
5578;DHT22;2811;51.900;10.734;2023-06-10T08:14:03;22.60;99.90
5578;DHT22;2811;51.900;10.734;2023-06-10T08:16:29;22.70;99.90
5578;DHT22;2811;51.900;10.734;2023-06-10T08:18:56;22.80;99.90
5578;DHT22;2811;51.900;10.734;2023-06-10T08:21:23;22.90;99.90
5578;DHT22;2811;51.900;10.734;2023-06-10T08:23:52;22.80;99.90
5578;DHT22;2811;51.900;10.734;2023-06-10T08:26:19;23.00;99.90
5578;DHT22;2811;51.900;10.734;2023-06-10T08:28:47;23.30;99.90
5578;DHT22;2811;51.900;10.734;2023-06-10T08:31:13;23.10;99.90
5578;DHT22;2811;51.900;10.734;2023-06-10T08:33:41;23.70;99.90
5578;DHT22;2811;51.900;10.734;2023-06-10T08:36:08;23.90;99.90
5578;DHT22;2811;51.900;10.734;2023-06-10T08:38:34;23.70;99.90
5578;DHT22;2811;51.900;10.734;2023-06-10T08:41:01;23.40;99.90
5578;DHT22;2811;51.900;10.734;2023-06-10T08:43:32;23.50;99.90
5578;DHT22;2811;51.900;10.734;2023-06-10T08:46:01;23.10;99.90
5578;DHT22;2811;51.900;10.734;2023-06-10T08:48:29;22.80;99.90
5578;DHT22;2811;51.900;10.734;2023-06-10T08:50:57;23.00;99.90
5578;DHT22;2811;51.900;10.734;2023-06-10T08:53:24;23.20;99.90
5578;DHT22;2811;51.900;10.734;2023-06-10T08:55:53;23.20;99.90
5578;DHT22;2811;51.900;10.734;2023-06-10T08:58:20;23.70;99.90
5578;DHT22;2811;51.900;10.734;2023-06-10T09:00:47;23.80;99.90
5578;DHT22;2811;51.900;10.734;2023-06-10T09:03:15;24.00;99.90
5578;DHT22;2811;51.900;10.734;2023-06-10T09:05:43;24.20;99.90
5578;DHT22;2811;51.900;10.734;2023-06-10T09:08:10;23.90;99.90
5578;DHT22;2811;51.900;10.734;2023-06-10T09:10:37;24.20;99.90
5578;DHT22;2811;51.900;10.734;2023-06-10T09:13:04;24.00;99.90
5578;DHT22;2811;51.900;10.734;2023-06-10T09:15:31;23.60;99.90
5578;DHT22;2811;51.900;10.734;2023-06-10T09:17:59;23.60;99.90
5578;DHT22;2811;51.900;10.734;2023-06-10T09:20:27;23.70;99.90
5578;DHT22;2811;51.900;10.734;2023-06-10T09:22:54;23.60;99.90
5578;DHT22;2811;51.900;10.734;2023-06-10T09:25:34;24.10;99.90
5578;DHT22;2811;51.900;10.734;2023-06-10T09:28:01;24.20;99.90
5578;DHT22;2811;51.900;10.734;2023-06-10T09:30:30;24.20;99.90
5578;DHT22;2811;51.900;10.734;2023-06-10T09:32:59;24.70;99.90
5578;DHT22;2811;51.900;10.734;2023-06-10T09:35:28;24.60;99.90
5578;DHT22;2811;51.900;10.734;2023-06-10T09:37:57;24.80;99.90
5578;DHT22;2811;51.900;10.734;2023-06-10T09:40:24;24.80;99.90
5578;DHT22;2811;51.900;10.734;2023-06-10T09:42:54;24.80;99.90
5578;DHT22;2811;51.900;10.734;2023-06-10T09:45:22;24.70;99.90
5578;DHT22;2811;51.900;10.734;2023-06-10T09:47:52;25.00;99.90
5578;DHT22;2811;51.900;10.734;2023-06-10T09:50:18;25.10;99.90
5578;DHT22;2811;51.900;10.734;2023-06-10T09:52:47;25.50;99.90
5578;DHT22;2811;51.900;10.734;2023-06-10T09:55:14;25.60;99.90
5578;DHT22;2811;51.900;10.734;2023-06-10T09:57:41;25.70;99.90
5578;DHT22;2811;51.900;10.734;2023-06-10T10:00:11;26.00;99.90
5578;DHT22;2811;51.900;10.734;2023-06-10T10:02:44;25.70;99.90
5578;DHT22;2811;51.900;10.734;2023-06-10T10:05:12;25.50;99.90
5578;DHT22;2811;51.900;10.734;2023-06-10T10:07:39;25.90;99.90
5578;DHT22;2811;51.900;10.734;2023-06-10T10:10:08;25.80;99.90
5578;DHT22;2811;51.900;10.734;2023-06-10T10:12:35;25.50;99.90
5578;DHT22;2811;51.900;10.734;2023-06-10T10:15:03;25.70;99.90
5578;DHT22;2811;51.900;10.734;2023-06-10T10:17:34;26.10;99.90
5578;DHT22;2811;51.900;10.734;2023-06-10T10:20:04;26.30;99.90
5578;DHT22;2811;51.900;10.734;2023-06-10T10:22:37;26.50;99.90
5578;DHT22;2811;51.900;10.734;2023-06-10T10:25:10;26.30;99.90
5578;DHT22;2811;51.900;10.734;2023-06-10T10:27:43;26.50;99.90
5578;DHT22;2811;51.900;10.734;2023-06-10T10:30:11;26.60;99.90
5578;DHT22;2811;51.900;10.734;2023-06-10T10:32:40;26.80;99.90
5578;DHT22;2811;51.900;10.734;2023-06-10T10:35:12;27.00;99.90
5578;DHT22;2811;51.900;10.734;2023-06-10T10:37:40;26.80;99.90
5578;DHT22;2811;51.900;10.734;2023-06-10T10:40:08;26.60;99.90
5578;DHT22;2811;51.900;10.734;2023-06-10T10:42:38;26.40;99.90
5578;DHT22;2811;51.900;10.734;2023-06-10T10:45:06;26.40;99.90
5578;DHT22;2811;51.900;10.734;2023-06-10T10:47:34;26.40;99.90
5578;DHT22;2811;51.900;10.734;2023-06-10T10:50:13;26.40;99.90
5578;DHT22;2811;51.900;10.734;2023-06-10T10:52:50;26.60;99.90
5578;DHT22;2811;51.900;10.734;2023-06-10T10:55:18;26.70;99.90
5578;DHT22;2811;51.900;10.734;2023-06-10T10:57:53;26.90;99.90
5578;DHT22;2811;51.900;10.734;2023-06-10T11:00:25;26.90;99.90
5578;DHT22;2811;51.900;10.734;2023-06-10T11:02:53;27.30;99.50
5578;DHT22;2811;51.900;10.734;2023-06-10T11:05:31;27.60;99.60
5578;DHT22;2811;51.900;10.734;2023-06-10T11:07:58;27.40;98.70
5578;DHT22;2811;51.900;10.734;2023-06-10T11:10:32;27.20;99.10
5578;DHT22;2811;51.900;10.734;2023-06-10T11:13:05;27.30;99.90
5578;DHT22;2811;51.900;10.734;2023-06-10T11:15:32;27.30;99.90
5578;DHT22;2811;51.900;10.734;2023-06-10T11:18:10;27.40;98.90
5578;DHT22;2811;51.900;10.734;2023-06-10T11:21:01;27.50;99.10
5578;DHT22;2811;51.900;10.734;2023-06-10T11:23:34;27.90;98.30
5578;DHT22;2811;51.900;10.734;2023-06-10T11:26:18;27.70;97.20
5578;DHT22;2811;51.900;10.734;2023-06-10T11:29:05;27.70;97.90
5578;DHT22;2811;51.900;10.734;2023-06-10T11:31:35;27.60;96.50
5578;DHT22;2811;51.900;10.734;2023-06-10T11:34:05;27.70;96.50
5578;DHT22;2811;51.900;10.734;2023-06-10T11:36:33;27.90;96.30
5578;DHT22;2811;51.900;10.734;2023-06-10T11:39:01;27.70;96.10
5578;DHT22;2811;51.900;10.734;2023-06-10T11:41:29;27.90;97.00
5578;DHT22;2811;51.900;10.734;2023-06-10T11:43:59;28.00;96.10
5578;DHT22;2811;51.900;10.734;2023-06-10T11:46:28;27.90;96.20
5578;DHT22;2811;51.900;10.734;2023-06-10T11:48:56;28.20;95.90
5578;DHT22;2811;51.900;10.734;2023-06-10T11:51:26;28.20;95.20
5578;DHT22;2811;51.900;10.734;2023-06-10T11:53:53;28.30;96.10
5578;DHT22;2811;51.900;10.734;2023-06-10T11:56:20;28.40;95.40
5578;DHT22;2811;51.900;10.734;2023-06-10T11:58:52;28.40;94.60
5578;DHT22;2811;51.900;10.734;2023-06-10T12:01:20;28.40;95.10
5578;DHT22;2811;51.900;10.734;2023-06-10T12:03:56;28.40;94.30
5578;DHT22;2811;51.900;10.734;2023-06-10T12:06:23;28.40;94.00
5578;DHT22;2811;51.900;10.734;2023-06-10T12:08:50;28.40;94.60
5578;DHT22;2811;51.900;10.734;2023-06-10T12:11:17;28.60;94.80
5578;DHT22;2811;51.900;10.734;2023-06-10T12:13:46;28.70;94.10
5578;DHT22;2811;51.900;10.734;2023-06-10T12:16:15;28.60;94.20
5578;DHT22;2811;51.900;10.734;2023-06-10T12:18:43;28.80;93.80
5578;DHT22;2811;51.900;10.734;2023-06-10T12:21:18;28.70;93.60
5578;DHT22;2811;51.900;10.734;2023-06-10T12:24:02;28.50;93.90
5578;DHT22;2811;51.900;10.734;2023-06-10T12:26:37;28.30;93.50
5578;DHT22;2811;51.900;10.734;2023-06-10T12:29:21;28.00;93.60
5578;DHT22;2811;51.900;10.734;2023-06-10T12:31:54;28.40;93.30
5578;DHT22;2811;51.900;10.734;2023-06-10T12:34:28;28.40;92.80
5578;DHT22;2811;51.900;10.734;2023-06-10T12:36:56;28.50;94.00
5578;DHT22;2811;51.900;10.734;2023-06-10T12:39:23;28.40;93.10
5578;DHT22;2811;51.900;10.734;2023-06-10T12:41:51;28.30;93.30
5578;DHT22;2811;51.900;10.734;2023-06-10T12:44:17;28.20;93.60
5578;DHT22;2811;51.900;10.734;2023-06-10T12:46:44;28.50;93.90
5578;DHT22;2811;51.900;10.734;2023-06-10T12:49:19;28.90;93.30
5578;DHT22;2811;51.900;10.734;2023-06-10T12:51:47;29.00;92.40
5578;DHT22;2811;51.900;10.734;2023-06-10T12:54:15;28.80;91.70
5578;DHT22;2811;51.900;10.734;2023-06-10T12:56:42;28.90;91.90
5578;DHT22;2811;51.900;10.734;2023-06-10T12:59:08;29.00;92.30
5578;DHT22;2811;51.900;10.734;2023-06-10T13:01:37;29.20;91.80
5578;DHT22;2811;51.900;10.734;2023-06-10T13:04:04;29.10;91.70
5578;DHT22;2811;51.900;10.734;2023-06-10T13:06:31;29.10;91.80
5578;DHT22;2811;51.900;10.734;2023-06-10T13:09:02;29.10;91.50
5578;DHT22;2811;51.900;10.734;2023-06-10T13:11:30;29.00;91.30
5578;DHT22;2811;51.900;10.734;2023-06-10T13:13:57;29.20;90.90
5578;DHT22;2811;51.900;10.734;2023-06-10T13:16:23;29.40;91.00
5578;DHT22;2811;51.900;10.734;2023-06-10T13:18:52;29.40;90.60
5578;DHT22;2811;51.900;10.734;2023-06-10T13:21:19;29.50;90.90
5578;DHT22;2811;51.900;10.734;2023-06-10T13:23:45;29.40;90.80
5578;DHT22;2811;51.900;10.734;2023-06-10T13:26:13;29.30;91.60
5578;DHT22;2811;51.900;10.734;2023-06-10T13:28:41;29.20;91.30
5578;DHT22;2811;51.900;10.734;2023-06-10T13:31:08;29.30;91.40
5578;DHT22;2811;51.900;10.734;2023-06-10T13:33:34;29.50;91.40
5578;DHT22;2811;51.900;10.734;2023-06-10T13:36:01;29.50;91.00
5578;DHT22;2811;51.900;10.734;2023-06-10T13:38:28;29.40;90.70
5578;DHT22;2811;51.900;10.734;2023-06-10T13:40:54;29.70;91.00
5578;DHT22;2811;51.900;10.734;2023-06-10T13:43:21;29.90;90.90
5578;DHT22;2811;51.900;10.734;2023-06-10T13:45:49;29.70;90.10
5578;DHT22;2811;51.900;10.734;2023-06-10T13:48:15;29.50;90.00
5578;DHT22;2811;51.900;10.734;2023-06-10T13:50:42;29.40;90.20
5578;DHT22;2811;51.900;10.734;2023-06-10T13:53:11;29.60;90.20
5578;DHT22;2811;51.900;10.734;2023-06-10T13:55:37;29.80;90.00
5578;DHT22;2811;51.900;10.734;2023-06-10T13:58:04;29.70;88.60
5578;DHT22;2811;51.900;10.734;2023-06-10T14:00:30;29.60;88.30
5578;DHT22;2811;51.900;10.734;2023-06-10T14:02:58;29.80;87.90
5578;DHT22;2811;51.900;10.734;2023-06-10T14:05:25;29.80;88.20
5578;DHT22;2811;51.900;10.734;2023-06-10T14:07:52;30.00;88.70
5578;DHT22;2811;51.900;10.734;2023-06-10T14:10:18;30.30;87.50
5578;DHT22;2811;51.900;10.734;2023-06-10T14:12:45;30.50;87.20
5578;DHT22;2811;51.900;10.734;2023-06-10T14:15:12;30.50;87.10
5578;DHT22;2811;51.900;10.734;2023-06-10T14:17:38;30.60;86.70
5578;DHT22;2811;51.900;10.734;2023-06-10T14:20:07;30.70;86.00
5578;DHT22;2811;51.900;10.734;2023-06-10T14:22:34;30.90;84.80
5578;DHT22;2811;51.900;10.734;2023-06-10T14:25:01;30.20;85.20
5578;DHT22;2811;51.900;10.734;2023-06-10T14:27:28;30.00;87.20
5578;DHT22;2811;51.900;10.734;2023-06-10T14:29:55;30.10;89.90
5578;DHT22;2811;51.900;10.734;2023-06-10T14:32:21;29.10;90.00
5578;DHT22;2811;51.900;10.734;2023-06-10T14:34:48;28.10;84.50
5578;DHT22;2811;51.900;10.734;2023-06-10T14:37:16;27.20;86.90
5578;DHT22;2811;51.900;10.734;2023-06-10T14:39:42;26.50;91.20
5578;DHT22;2811;51.900;10.734;2023-06-10T14:42:09;26.20;93.40
5578;DHT22;2811;51.900;10.734;2023-06-10T14:44:35;25.80;92.70
5578;DHT22;2811;51.900;10.734;2023-06-10T14:47:02;25.80;94.70
5578;DHT22;2811;51.900;10.734;2023-06-10T14:49:29;25.90;95.50
5578;DHT22;2811;51.900;10.734;2023-06-10T14:51:56;26.00;93.90
5578;DHT22;2811;51.900;10.734;2023-06-10T14:54:23;25.90;93.80
5578;DHT22;2811;51.900;10.734;2023-06-10T14:56:50;26.00;97.40
5578;DHT22;2811;51.900;10.734;2023-06-10T14:59:17;25.90;97.20
5578;DHT22;2811;51.900;10.734;2023-06-10T15:01:43;26.20;95.50
5578;DHT22;2811;51.900;10.734;2023-06-10T15:04:10;26.50;94.70
5578;DHT22;2811;51.900;10.734;2023-06-10T15:06:36;26.70;93.40
5578;DHT22;2811;51.900;10.734;2023-06-10T15:09:03;27.00;93.90
5578;DHT22;2811;51.900;10.734;2023-06-10T15:11:31;27.20;95.10
5578;DHT22;2811;51.900;10.734;2023-06-10T15:13:58;27.60;95.00
5578;DHT22;2811;51.900;10.734;2023-06-10T15:16:25;27.50;95.00
5578;DHT22;2811;51.900;10.734;2023-06-10T15:18:51;27.60;95.00
5578;DHT22;2811;51.900;10.734;2023-06-10T15:21:18;27.70;95.90
5578;DHT22;2811;51.900;10.734;2023-06-10T15:23:44;27.80;93.70
5578;DHT22;2811;51.900;10.734;2023-06-10T15:26:12;27.80;93.30
5578;DHT22;2811;51.900;10.734;2023-06-10T15:28:40;27.50;95.10
5578;DHT22;2811;51.900;10.734;2023-06-10T15:31:07;26.80;96.50
5578;DHT22;2811;51.900;10.734;2023-06-10T15:33:33;26.40;95.50
5578;DHT22;2811;51.900;10.734;2023-06-10T15:36:00;25.90;96.00
5578;DHT22;2811;51.900;10.734;2023-06-10T15:38:26;26.20;95.90
5578;DHT22;2811;51.900;10.734;2023-06-10T15:40:53;26.80;95.40
5578;DHT22;2811;51.900;10.734;2023-06-10T15:43:21;26.70;94.80
5578;DHT22;2811;51.900;10.734;2023-06-10T15:45:49;26.40;95.20
5578;DHT22;2811;51.900;10.734;2023-06-10T15:48:15;25.70;95.40
5578;DHT22;2811;51.900;10.734;2023-06-10T15:50:42;25.10;96.90